• Join FlightAware (Why Join?)
  • Login
  • US Flag 
08:48AM EST


 

Airport Tracker/Info


-or-


 

Live Flight TrackerFlight Track Log ✈ EJM918 ✈ 30-Apr-2013 ✈ KIAD - KHPN

Flight Track Log - Related Links

Times and Time Zones

All times are in EDT time to prevent confusion due to time zone crossing. See the EJM918 flight status page for this flight to view local times or setup timezone preferences in your user account.

Time Position Orientation Groundspeed Altitude Reporting Facility
EDT Latitude Longitude Course Direction KTS MPH feet Rate Location/Type
03:52PM 38.9510 -77.5100 290° West 201 231 2,100  Level FlightAware
03:53PM 38.9610 -77.5450 290° West 242 278 3,500 1,800 Climbing FlightAware
03:53PM 38.9720 -77.5820 291° West 269 310 3,800 420 Climbing FlightAware
03:53PM 38.9790 -77.6020 294° West 276 318 3,800  Level FlightAware
03:54PM 38.9950 -77.6190 320° Northwest 275 316 3,800 1,440 Level FlightAware
03:54PM 39.0240 -77.6420 328° Northwest 273 314 4,900 1,920 Climbing FlightAware
03:54PM 39.0550 -77.6660 329° Northwest 276 318 5,600 840 Climbing FlightAware
03:55PM 39.0870 -77.6910 329° Northwest 275 316 5,700 240 Climbing FlightAware
03:55PM 39.1050 -77.7040 331° Northwest 277 319 5,800 120 Climbing FlightAware
03:56PM 39.1310 -77.7250 328° Northwest 278 320 5,800 960 Level FlightAware
03:56PM 39.1620 -77.7410 338° Northwest 278 320 6,800 2,040 Climbing FlightAware
03:57PM 39.2010 -77.7190 24° Northeast 275 316 8,200 2,280 Climbing FlightAware
03:57PM 39.2110 -77.6850 69° East 283 326 8,700 780 Climbing FlightAware
03:58PM 39.2200 -77.6430 75° East 280 322 8,800 60 Climbing FlightAware
03:58PM 39.2280 -77.6000 76° East 282 325 8,800  Level FlightAware
03:58PM 39.2360 -77.5610 75° East 283 326 8,800  Level FlightAware
03:59PM 39.2470 -77.5050 76° East 280 322 8,800  Level FlightAware
03:59PM 39.2560 -77.4610 75° East 276 318 8,800 -120 Level FlightAware
04:00PM 39.2640 -77.4190 76° East 274 315 8,700 -120 Descending FlightAware
04:00PM 39.2720 -77.3810 75° East 277 319 8,700  Level FlightAware
04:01PM 39.2790 -77.3510 73° East 276 318 8,700 1,800 Level FlightAware
04:01PM 39.2950 -77.2720 75° East 290 334 10,700 2,580 Climbing FlightAware
04:02PM 39.3080 -77.2020 76° East 316 364 12,400 2,520 Climbing FlightAware
04:03PM 39.3230 -77.1230 76° East 363 418 14,100 1,800 Climbing FlightAware
04:03PM 39.3350 -77.0340 80° East 407 468 14,800 2,280 Climbing FlightAware
04:04PM 39.3200 -76.8900 98° East 427 491 17,900 2,880 Climbing FlightAware
04:05PM 39.3110 -76.8120 98° East 442 509 19,400 3,480 Climbing FlightAware
04:05PM 39.3026 -76.7462 99° East 453 521 20,700 3,840 Climbing FlightAware ADS-B
04:06PM 39.2918 -76.6605 99° East 462 532 22,300 1,980 Climbing FlightAware ADS-B
04:06PM 39.2794 -76.5610 99° East 469 540 23,000 600 Climbing FlightAware ADS-B
04:07PM 39.2682 -76.4728 99° East 468 539 23,000  Level FlightAware ADS-B
04:07PM 39.2566 -76.3802 99° East 469 540 23,000  Level FlightAware ADS-B
04:08PM 39.2460 -76.2968 99° East 470 541 23,000  Level FlightAware ADS-B
04:08PM 39.2350 -76.2134 100° East 472 543 23,000  Level FlightAware ADS-B
04:09PM 39.2238 -76.1292 100° East 471 542 23,000  Level FlightAware ADS-B
04:09PM 39.2129 -76.0454 100° East 469 540 23,000  Level FlightAware ADS-B
04:10PM 39.2059 -75.9880 99° East 468 539 23,000  Level FlightAware ADS-B
04:10PM 39.2059 -75.9475 90° East 465 535 23,000  Level FlightAware ADS-B
04:10PM 39.2115 -75.9050 80° East 462 532 23,000  Level FlightAware ADS-B
04:10PM 39.2177 -75.8796 73° East 460 529 23,000  Level FlightAware ADS-B
04:11PM 39.2268 -75.8532 66° East 456 525 23,000  Level FlightAware ADS-B
04:11PM 39.2406 -75.8235 59° Northeast 453 521 23,000  Level FlightAware ADS-B
04:11PM 39.2633 -75.7886 50° Northeast 448 516 23,000  Level FlightAware ADS-B
04:12PM 39.3078 -75.7298 46° Northeast 447 514 23,000  Level FlightAware ADS-B
04:12PM 39.3507 -75.6606 51° Northeast 449 517 23,000  Level FlightAware ADS-B
04:13PM 39.3913 -75.5941 52° Northeast 450 518 23,000  Level FlightAware ADS-B
04:13PM 39.4435 -75.5062 52° Northeast 450 518 23,000  Level FlightAware ADS-B
04:14PM 39.4843 -75.4374 52° Northeast 449 517 23,000  Level FlightAware ADS-B
04:14PM 39.5223 -75.3732 52° Northeast 451 519 23,000 -780 Level FlightAware ADS-B
04:15PM 39.5677 -75.2965 52° Northeast 449 517 22,200 -1,620 Descending FlightAware ADS-B
04:15PM 39.6065 -75.2313 52° Northeast 440 506 21,200 -1,200 Descending FlightAware ADS-B
04:16PM 39.6434 -75.1685 53° Northeast 439 505 21,000 -300 Descending FlightAware ADS-B
04:16PM 39.6568 -75.1450 53° Northeast 441 507 21,000  Level FlightAware ADS-B
04:16PM 39.6656 -75.1261 59° Northeast 443 510 21,000  Level FlightAware ADS-B
04:17PM 39.6823 -75.0785 65° Northeast 446 513 21,000  Level FlightAware ADS-B
04:17PM 39.7004 -74.9973 74° East 445 512 21,000  Level FlightAware ADS-B
04:18PM 39.7180 -74.9141 75° East 443 510 21,000  Level FlightAware ADS-B
04:18PM 39.7332 -74.8420 75° East 442 509 21,000  Level FlightAware ADS-B
04:18PM 39.7421 -74.8131 68° East 439 505 21,000  Level FlightAware ADS-B
04:18PM 39.7500 -74.7947 61° Northeast 438 504 21,000  Level FlightAware ADS-B
04:19PM 39.7756 -74.7549 50° Northeast 436 502 21,000  Level FlightAware ADS-B
04:19PM 39.8220 -74.7039 40° Northeast 435 501 21,000  Level FlightAware ADS-B
04:20PM 39.8699 -74.6518 40° Northeast 436 502 21,000  Level FlightAware ADS-B
04:20PM 39.9164 -74.6014 40° Northeast 435 501 21,000  Level FlightAware ADS-B
04:21PM 39.9465 -74.5666 42° Northeast 436 502 21,000  Level FlightAware ADS-B
04:21PM 39.9720 -74.5242 52° Northeast 440 506 21,000  Level FlightAware ADS-B
04:21PM 39.9910 -74.4790 61° Northeast 442 509 21,000  Level FlightAware ADS-B
04:22PM 40.0198 -74.4018 64° Northeast 443 510 21,000  Level FlightAware ADS-B
04:22PM 40.0482 -74.3254 64° Northeast 443 510 21,000  Level FlightAware ADS-B
04:23PM 40.0751 -74.2526 64° Northeast 442 509 21,000 -300 Level FlightAware ADS-B
04:23PM 40.1020 -74.1804 64° Northeast 439 505 20,700 -720 Descending FlightAware ADS-B
04:24PM 40.1295 -74.1058 64° Northeast 439 505 20,300 -780 Descending FlightAware ADS-B
04:24PM 40.1591 -74.0258 64° Northeast 434 499 19,900 -780 Descending FlightAware ADS-B
04:25PM 40.1863 -73.9506 65° Northeast 433 498 19,500 -720 Descending FlightAware ADS-B
04:26PM 40.2166 -73.8675 64° Northeast 429 494 19,100 -780 Descending FlightAware ADS-B
04:26PM 40.2430 -73.7956 64° Northeast 424 488 18,700 -900 Descending FlightAware ADS-B
04:27PM 40.2731 -73.7130 64° Northeast 421 484 18,100 -1,140 Descending FlightAware ADS-B
04:27PM 40.2978 -73.6447 65° Northeast 412 474 17,500 -840 Descending FlightAware ADS-B
04:28PM 40.3270 -73.5643 65° Northeast 410 472 17,200 -660 Descending FlightAware ADS-B
04:28PM 40.3571 -73.4969 60° Northeast 403 464 16,800 -540 Descending FlightAware ADS-B
04:29PM 40.3938 -73.4561 40° Northeast 401 461 16,700 -120 Descending FlightAware ADS-B
04:29PM 40.4430 -73.4300 22° Northeast 401 461 16,700  Level FlightAware
04:29PM 40.4520 -73.4265 16° North 401 461 16,700  Level FlightAware ADS-B
04:30PM 40.5096 -73.4055 15° North 401 461 16,700  Level FlightAware ADS-B
04:30PM 40.5672 -73.3847 15° North 397 457 16,700  Level FlightAware ADS-B
04:31PM 40.6256 -73.3638 15° North 394 453 16,700 -300 Level FlightAware ADS-B
04:32PM 40.6832 -73.3430 15° North 352 405 16,400 -1,140 Descending FlightAware ADS-B
04:33PM 40.7698 -73.3116 15° North 330 380 15,000 -1,440 Descending FlightAware ADS-B
04:33PM 40.7875 -73.3000 26° Northeast 307 353 14,700 -1,140 Descending FlightAware ADS-B
04:34PM 40.8330 -73.2200 53° Northeast 305 351 13,700 -1,260 Descending FlightAware
04:34PM 40.8650 -73.1560 57° Northeast 300 345 12,700 -1,440 Descending FlightAware
04:35PM 40.8970 -73.0900 57° Northeast 292 336 11,700 -1,380 Descending FlightAware
04:36PM 40.9320 -73.0180 57° Northeast 283 326 10,600 -1,080 Descending FlightAware
04:37PM 40.9630 -72.9690 50° Northeast 283 326 10,100 -360 Descending FlightAware
04:37PM 40.9990 -72.9130 50° Northeast 283 326 10,100  Level FlightAware
04:38PM 41.0280 -72.8680 49° Northeast 283 326 10,100 -3,060 Level FlightAware
04:39PM 41.0667 -73.1833 49° Northeast 273 314 5,100 -3,060 Descending New York TRACON
04:40PM 41.1000 -73.2667 298° West 264 304 4,100 -540 Descending New York TRACON
04:41PM 41.1333 -73.3667 294° West 268 308 4,100  Level New York TRACON
04:42PM 41.1667 -73.4500 298° West 236 272 4,100  Level New York TRACON
04:43PM 41.1833 -73.5000 294° West 192 221 4,100 -120 Level New York TRACON
04:49PM 41.3699 -73.8382 294° West 186 214 3,600 -120 Descending FlightAware ADS-B
04:49PM 41.3672 -73.8487 251° West 185 213 3,700 360 Climbing FlightAware ADS-B
04:50PM 41.3167 -73.8667 251° West 184 212 4,100 180 Climbing New York TRACON
04:51PM 41.2667 -73.8667 180° South 185 213 4,100 -60 Level New York TRACON
04:52PM 41.2333 -73.8333 143° Southeast 182 209 4,000 -540 Descending New York TRACON
04:53PM 41.1833 -73.8000 153° Southeast 177 204 3,100 -960 Descending New York TRACON
04:54PM 41.1500 -73.7667 143° Southeast 154 177 2,100 -840 Descending New York TRACON
04:55PM 41.1167 -73.7500 159° South 136 157 1,400 -720 Descending New York TRACON
04:56PM 41.0833 -73.7167 143° Southeast 121 139 800 -720 Descending New York TRACON